Time;durP1;ratioP1;P1;durP2;ratioP2;P2;SDS_P1;SDS_P2;PMS_P1;PMS_P2;Temp;Humidity;BMP_temperature;BMP_pressure;BME280_temperature;BME280_humidity;BME280_pressure;Samples;Min_cycle;Max_cycle;Signal;HPM_P1;HPM_P2
2021/03/27 00:01:09;;;;;;;7.53;5.75;;;;;;;7.75;77.14;98501.13;4920627;29;20485;-83
2021/03/27 00:04:04;;;;;;;10.13;6.93;;;;;;;7.75;77.11;98510.13;4938008;29;20028;-83
2021/03/27 00:06:45;;;;;;;9.52;6.13;;;;;;;7.82;76.60;98512.59;4936983;29;20027;-83
2021/03/27 00:09:34;;;;;;;11.27;6.93;;;;;;;7.73;76.84;98508.75;4938333;29;20039;-86
2021/03/27 00:12:10;;;;;;;11.00;6.47;;;;;;;7.84;76.76;98518.59;4940332;29;20032;-86
2021/03/27 00:14:41;;;;;;;8.82;6.13;;;;;;;7.81;76.49;98502.78;4951239;29;20028;-81
2021/03/27 00:17:18;;;;;;;7.80;5.95;;;;;;;7.80;76.90;98509.34;4950537;29;20066;-83
2021/03/27 00:19:56;;;;;;;8.98;5.55;;;;;;;7.84;76.31;98505.81;4921251;29;20035;-84
2021/03/27 00:22:34;;;;;;;9.35;5.88;;;;;;;7.91;76.29;98509.13;4919991;29;20389;-85
2021/03/27 00:25:12;;;;;;;8.07;5.57;;;;;;;8.02;76.39;98509.97;4919635;29;20062;-84
2021/03/27 00:28:16;;;;;;;7.70;5.03;;;;;;;8.10;76.25;98498.59;4936136;29;20397;-83
2021/03/27 00:30:57;;;;;;;7.72;5.13;;;;;;;8.27;75.50;98501.91;4936270;29;20036;-82
2021/03/27 00:33:35;;;;;;;6.18;4.95;;;;;;;8.32;75.12;98491.09;4936381;29;20024;-83
2021/03/27 00:36:18;;;;;;;7.60;5.10;;;;;;;8.50;74.49;98500.66;4936129;29;20038;-82
2021/03/27 00:38:49;;;;;;;6.25;4.75;;;;;;;8.50;74.50;98504.22;4936434;29;20527;-79
2021/03/27 00:41:40;;;;;;;5.35;4.38;;;;;;;8.53;74.27;98492.78;4919316;29;20396;-83
2021/03/27 00:44:11;;;;;;;6.40;4.35;;;;;;;8.45;74.33;98496.03;4931667;29;20032;-83
2021/03/27 00:46:38;;;;;;;7.28;4.68;;;;;;;8.40;74.62;98498.72;4936446;29;20031;-83
2021/03/27 00:49:09;;;;;;;5.57;3.45;;;;;;;8.38;74.67;98506.34;4919807;29;20035;-81
2021/03/27 00:51:44;;;;;;;8.02;4.35;;;;;;;8.27;75.03;98507.38;4936529;29;20055;-83
2021/03/27 00:54:25;;;;;;;7.45;4.97;;;;;;;8.19;75.17;98498.88;4936156;29;20043;-83
2021/03/27 00:56:59;;;;;;;7.25;4.07;;;;;;;8.17;75.42;98499.16;4936870;29;20086;-83
2021/03/27 00:59:31;;;;;;;9.55;5.40;;;;;;;8.21;75.19;98496.72;4936840;29;20042;-83
2021/03/27 01:02:00;;;;;;;9.43;4.63;;;;;;;8.25;75.36;98501.38;4919044;29;20131;-80
2021/03/27 01:04:32;;;;;;;8.07;3.80;;;;;;;8.19;75.24;98486.09;4936022;29;20024;-83
2021/03/27 01:07:02;;;;;;;6.85;4.32;;;;;;;8.11;75.41;98493.97;4935854;29;20019;-81
2021/03/27 01:09:36;;;;;;;7.97;4.40;;;;;;;8.02;76.03;98496.34;4935937;29;20505;-83
2021/03/27 01:12:07;;;;;;;6.60;4.00;;;;;;;7.88;76.13;98476.16;4935917;29;20019;-80
2021/03/27 01:15:02;;;;;;;7.45;5.30;;;;;;;7.96;76.03;98491.97;4918269;29;20462;-83
2021/03/27 01:17:33;;;;;;;9.02;4.60;;;;;;;7.90;75.86;98471.25;4884512;29;20046;-83
2021/03/27 01:20:05;;;;;;;6.60;4.07;;;;;;;7.93;75.72;98487.06;4934867;29;20425;-83
2021/03/27 01:22:31;;;;;;;11.30;5.03;;;;;;;7.72;76.11;98480.69;4934544;29;20020;-83
2021/03/27 01:25:03;;;;;;;9.23;5.43;;;;;;;7.69;76.37;98483.13;4934820;29;20051;-82
2021/03/27 01:27:33;;;;;;;7.28;4.43;;;;;;;7.64;76.59;98481.22;4917312;29;20058;-80
2021/03/27 01:30:14;;;;;;;7.65;5.32;;;;;;;7.54;77.18;98483.84;4934667;29;20075;-82
2021/03/27 01:33:03;;;;;;;8.18;5.53;;;;;;;7.60;77.01;98487.44;4934431;29;20020;-82
2021/03/27 01:35:37;;;;;;;8.80;4.95;;;;;;;7.42;77.30;98478.59;4934324;29;20032;-80
2021/03/27 01:38:02;;;;;;;8.27;4.78;;;;;;;7.39;77.38;98483.75;4934352;29;20036;-80
2021/03/27 01:41:08;;;;;;;9.90;5.32;;;;;;;7.29;78.02;98487.22;4934493;29;20031;-81
2021/03/27 01:43:35;;;;;;;7.53;5.55;;;;;;;7.24;78.53;98478.19;4917342;29;20035;-80
2021/03/27 01:46:36;;;;;;;7.35;5.53;;;;;;;7.16;78.65;98476.78;4934337;29;20034;-81
2021/03/27 01:49:42;;;;;;;7.30;5.70;;;;;;;7.05;78.83;98479.69;4934302;29;20067;-79
2021/03/27 01:52:10;;;;;;;8.07;5.40;;;;;;;7.12;78.45;98475.66;4901424;29;21497;-83
2021/03/27 01:55:00;;;;;;;9.27;5.10;;;;;;;7.10;78.80;98477.81;4934809;29;20024;-83
2021/03/27 01:57:36;;;;;;;11.15;5.70;;;;;;;7.02;78.56;98472.84;4934416;29;20086;-81
2021/03/27 02:00:10;;;;;;;7.97;5.22;;;;;;;7.12;78.10;98472.13;4917118;29;20452;-79
2021/03/27 02:02:41;;;;;;;9.18;5.55;;;;;;;6.91;78.82;98473.84;4934289;29;20040;-82
2021/03/27 02:05:07;;;;;;;11.13;5.20;;;;;;;6.93;79.23;98477.13;4934010;29;20485;-81
2021/03/27 02:07:39;;;;;;;7.95;5.57;;;;;;;6.87;79.15;98472.72;4933868;29;20028;-85
2021/03/27 02:10:16;;;;;;;8.07;5.45;;;;;;;6.76;79.27;98473.72;4934138;29;20066;-77
2021/03/27 02:12:41;;;;;;;8.82;6.05;;;;;;;6.66;79.64;98468.19;4933681;29;20473;-76
2021/03/27 02:15:37;;;;;;;6.88;5.30;;;;;;;6.59;79.86;98464.84;4933721;29;20038;-76
2021/03/27 02:18:20;;;;;;;8.48;6.15;;;;;;;6.42;80.15;98475.84;4933442;29;20552;-76
2021/03/27 02:21:19;;;;;;;12.88;6.10;;;;;;;6.42;80.35;98476.63;4933704;29;20087;-76
2021/03/27 02:24:09;;;;;;;9.90;5.97;;;;;;;6.37;80.23;98462.19;4933751;29;20083;-77
2021/03/27 02:27:14;;;;;;;8.93;6.07;;;;;;;6.33;79.93;98467.31;4916584;29;20127;-75
2021/03/27 02:30:27;;;;;;;8.60;5.32;;;;;;;6.23;80.41;98460.97;4914937;29;20452;-76
2021/03/27 02:33:10;;;;;;;9.18;5.10;;;;;;;6.24;80.12;98460.69;4839700;29;20034;-80
2021/03/27 02:35:56;;;;;;;10.50;6.45;;;;;;;6.20;80.40;98462.25;4837759;29;20033;-77
2021/03/27 02:38:45;;;;;;;8.25;6.00;;;;;;;6.07;80.56;98445.56;4898122;29;20082;-78
2021/03/27 02:41:32;;;;;;;9.45;6.25;;;;;;;6.21;80.37;98457.66;4914592;29;20036;-76
2021/03/27 02:44:42;;;;;;;7.03;5.25;;;;;;;6.25;80.06;98459.63;4914290;29;20037;-79
2021/03/27 02:47:41;;;;;;;10.88;5.55;;;;;;;6.22;79.91;98453.88;4914670;29;20063;-76
2021/03/27 02:50:22;;;;;;;11.80;5.57;;;;;;;6.18;79.94;98445.41;4914761;29;20032;-76
2021/03/27 02:53:01;;;;;;;8.35;5.80;;;;;;;6.22;80.00;98460.13;4914383;29;20036;-80
2021/03/27 02:55:39;;;;;;;9.93;6.05;;;;;;;6.15;79.96;98453.25;4914932;29;20394;-76
2021/03/27 02:58:18;;;;;;;10.48;7.50;;;;;;;5.92;81.01;98455.16;4914167;29;20039;-76
2021/03/27 03:01:09;;;;;;;15.60;6.25;;;;;;;5.84;81.30;98462.91;4914179;29;20035;-77
2021/03/27 03:03:49;;;;;;;9.13;5.72;;;;;;;5.79;82.03;98466.38;4908038;29;20119;-77
2021/03/27 03:06:42;;;;;;;9.95;5.95;;;;;;;5.82;81.30;98465.06;4914176;29;20028;-76
2021/03/27 03:09:18;;;;;;;9.20;6.32;;;;;;;5.87;80.95;98459.72;4897102;29;20040;-77
2021/03/27 03:12:11;;;;;;;9.93;6.75;;;;;;;5.83;81.31;98463.97;4914184;29;20111;-78
2021/03/27 03:14:55;;;;;;;9.57;6.53;;;;;;;5.69;82.11;98460.00;4897223;29;20063;-78
2021/03/27 03:17:29;;;;;;;8.90;6.82;;;;;;;5.63;82.27;98461.00;4913843;29;20389;-77
2021/03/27 03:20:03;;;;;;;8.50;5.97;;;;;;;5.51;82.45;98442.13;4914085;29;20028;-79
2021/03/27 03:22:37;;;;;;;12.30;6.72;;;;;;;5.68;81.92;98448.31;4914044;29;20028;-77
2021/03/27 03:25:11;;;;;;;9.85;5.30;;;;;;;5.54;81.88;98430.78;4919106;29;20054;-75
2021/03/27 03:28:07;;;;;;;12.73;7.20;;;;;;;5.55;82.59;98464.13;4933207;29;20485;-75
2021/03/27 03:30:54;;;;;;;7.70;5.53;;;;;;;5.55;82.30;98458.69;4928148;29;20111;-76
2021/03/27 03:33:27;;;;;;;;;;;;;;;5.49;82.84;98459.69;4925622;29;20500;-75
2021/03/27 03:35:59;;;;;;;11.05;6.13;;;;;;;5.64;82.08;98460.72;4912825;29;19927;-75
2021/03/27 03:38:42;;;;;;;9.00;5.75;;;;;;;5.64;81.99;98462.66;4915481;29;20161;-78
2021/03/27 03:41:31;;;;;;;13.57;5.97;;;;;;;5.56;82.19;98465.78;4917490;29;20096;-77
2021/03/27 03:44:06;;;;;;;9.27;5.25;;;;;;;5.37;83.05;98462.53;4917330;29;20128;-77
2021/03/27 03:46:42;;;;;;;9.27;6.22;;;;;;;5.38;82.84;98462.28;4917287;29;20025;-75
2021/03/27 03:49:31;;;;;;;8.73;4.70;;;;;;;5.36;82.71;98460.88;4917324;29;20032;-75
2021/03/27 03:52:19;;;;;;;6.22;5.57;;;;;;;5.29;83.28;98474.59;4917250;29;20076;-75
2021/03/27 03:55:39;;;;;;;8.48;5.70;;;;;;;5.34;83.17;98463.03;4915594;29;20024;-78
2021/03/27 03:58:29;;;;;;;7.43;5.28;;;;;;;5.31;83.32;98464.34;4877349;29;20512;-75
2021/03/27 04:01:03;;;;;;;10.10;5.47;;;;;;;5.30;82.87;98460.00;4915625;29;20067;-77
2021/03/27 04:03:40;;;;;;;12.82;6.78;;;;;;;5.27;83.26;98473.22;4917798;29;20068;-75
2021/03/27 04:06:13;;;;;;;9.60;6.43;;;;;;;5.32;83.34;98462.47;4916722;29;20381;-74
2021/03/27 04:08:56;;;;;;;8.68;6.30;;;;;;;5.15;83.48;98467.91;4917324;29;20044;-76
2021/03/27 04:11:50;;;;;;;11.95;6.47;;;;;;;5.22;82.90;98471.28;4916701;29;20016;-75
2021/03/27 04:14:38;;;;;;;10.52;6.28;;;;;;;5.01;83.82;98466.56;4917809;29;20032;-75
2021/03/27 04:17:13;;;;;;;12.27;7.63;;;;;;;4.89;84.15;98459.63;4917326;29;20059;-77
2021/03/27 04:19:50;;;;;;;13.63;9.50;;;;;;;4.78;83.88;98466.75;4917057;29;20035;-75
2021/03/27 04:22:26;;;;;;;15.20;11.10;;;;;;;4.70;83.59;98464.44;4918447;29;20497;-75
2021/03/27 04:25:10;;;;;;;13.43;10.27;;;;;;;4.88;83.20;98474.25;4922271;29;20091;-76
2021/03/27 04:27:49;;;;;;;14.73;10.95;;;;;;;4.86;83.05;98477.19;4922218;29;20032;-75
2021/03/27 04:30:17;;;;;;;16.50;8.98;;;;;;;4.78;83.49;98483.00;4915430;29;20482;-75
2021/03/27 04:32:57;;;;;;;14.88;7.70;;;;;;;4.74;83.19;98481.84;4916645;29;20148;-76
2021/03/27 04:35:26;;;;;;;16.52;9.43;;;;;;;4.72;82.98;98484.00;4916946;29;20028;-75
2021/03/27 04:38:13;;;;;;;13.05;9.00;;;;;;;4.71;83.25;98461.50;4915537;29;20047;-75
2021/03/27 04:40:48;;;;;;;14.10;7.65;;;;;;;4.73;83.30;98474.81;4917222;29;20024;-75
2021/03/27 04:43:29;;;;;;;13.55;8.02;;;;;;;4.51;83.40;98452.22;4917784;29;20024;-76
2021/03/27 04:46:18;;;;;;;11.32;7.25;;;;;;;4.55;83.61;98475.00;4919290;29;20051;-75
2021/03/27 04:48:56;;;;;;;11.98;7.75;;;;;;;4.61;83.55;98490.28;4925439;29;20040;-77
2021/03/27 04:51:30;;;;;;;12.50;8.05;;;;;;;4.49;83.94;98492.22;4925532;29;20036;-75
2021/03/27 04:54:11;;;;;;;10.23;7.72;;;;;;;4.61;83.12;98490.28;4919249;29;20027;-75
2021/03/27 04:57:10;;;;;;;11.07;9.05;;;;;;;4.59;83.14;98497.84;4916203;29;20036;-76
2021/03/27 05:00:00;;;;;;;14.05;7.70;;;;;;;4.51;83.79;98492.84;4926153;29;20570;-75
2021/03/27 05:02:56;;;;;;;14.48;8.13;;;;;;;4.59;83.42;98495.13;4914655;29;20043;-75
2021/03/27 05:05:44;;;;;;;14.18;8.57;;;;;;;4.60;82.90;98483.25;4915743;29;20026;-76
2021/03/27 05:08:18;;;;;;;11.32;7.68;;;;;;;4.62;82.84;98500.06;4915900;29;20047;-75
2021/03/27 05:11:02;;;;;;;16.60;9.38;;;;;;;4.50;83.21;98497.41;4915578;29;20052;-74
2021/03/27 05:14:00;;;;;;;13.73;9.43;;;;;;;4.49;83.47;98497.66;4914200;29;20781;-76
2021/03/27 05:16:32;;;;;;;18.75;10.05;;;;;;;4.44;83.46;98497.56;4925041;29;20048;-74
2021/03/27 05:19:15;;;;;;;18.20;8.82;;;;;;;4.29;83.79;98498.13;4934330;29;20366;-75
2021/03/27 05:22:19;;;;;;;13.60;8.65;;;;;;;4.48;83.29;98509.56;4934336;29;20031;-76
2021/03/27 05:24:56;;;;;;;17.45;9.80;;;;;;;4.53;82.34;98513.19;4912187;29;20039;-76
2021/03/27 05:27:39;;;;;;;11.02;8.30;;;;;;;4.54;81.83;98505.88;4934736;29;20043;-75
2021/03/27 05:30:25;;;;;;;15.25;9.32;;;;;;;4.55;81.73;98507.50;4934478;29;20067;-75
2021/03/27 05:33:27;;;;;;;13.53;9.60;;;;;;;4.64;81.04;98511.47;4934346;29;20035;-75
2021/03/27 05:36:04;;;;;;;14.95;9.73;;;;;;;4.86;80.31;98513.22;4903744;29;20412;-75
2021/03/27 05:38:57;;;;;;;12.98;9.18;;;;;;;4.88;79.57;98520.31;4932551;29;20043;-75
2021/03/27 05:41:52;;;;;;;14.70;9.25;;;;;;;5.06;79.21;98514.66;4933802;29;20486;-76
2021/03/27 05:45:13;;;;;;;16.50;9.73;;;;;;;5.23;78.35;98519.00;4893008;29;20469;-73
2021/03/27 05:48:14;;;;;;;25.27;9.55;;;;;;;5.36;77.44;98509.69;4932259;29;20050;-75
2021/03/27 05:51:08;;;;;;;14.02;9.68;;;;;;;5.40;77.38;98505.44;4932414;29;20032;-74
2021/03/27 05:53:58;;;;;;;19.40;10.35;;;;;;;5.72;76.11;98517.31;4916877;29;20036;-75
2021/03/27 05:56:29;;;;;;;28.85;13.32;;;;;;;5.89;75.48;98520.81;4917568;29;20032;-76
2021/03/27 05:59:32;;;;;;;23.50;11.45;;;;;;;6.02;74.70;98514.19;4915112;29;20051;-74
2021/03/27 06:02:04;;;;;;;17.08;9.98;;;;;;;6.07;74.32;98506.13;4914735;29;20048;-76
2021/03/27 06:04:45;;;;;;;17.02;8.63;;;;;;;6.20;74.08;98522.00;4920035;29;20028;-86
2021/03/27 06:07:19;;;;;;;14.82;9.65;;;;;;;6.37;73.26;98528.22;4921195;29;20060;-85
2021/03/27 06:10:23;;;;;;;13.18;9.38;;;;;;;6.55;72.59;98518.88;4920041;29;20067;-85
2021/03/27 06:13:14;;;;;;;11.68;10.07;;;;;;;6.91;70.97;98528.25;4859667;29;20066;-86
2021/03/27 06:16:17;;;;;;;14.30;9.18;;;;;;;6.94;70.67;98525.00;4915431;29;20497;-84
2021/03/27 06:19:04;;;;;;;11.27;8.50;;;;;;;7.16;69.72;98533.91;4918926;29;20481;-86
2021/03/27 06:21:51;;;;;;;14.05;8.70;;;;;;;7.45;68.96;98528.97;4917380;29;20413;-85
2021/03/27 06:24:45;;;;;;;14.60;9.95;;;;;;;7.54;68.69;98527.41;4914835;29;20036;-85
2021/03/27 06:27:40;;;;;;;16.73;9.20;;;;;;;7.75;68.12;98512.00;4920407;29;20047;-87
2021/03/27 06:30:18;;;;;;;15.38;8.30;;;;;;;8.07;67.12;98518.19;4902430;29;20036;-87
2021/03/27 06:33:13;;;;;;;13.23;8.45;;;;;;;8.35;66.53;98523.25;4916810;29;20061;-88
2021/03/27 06:35:53;;;;;;;12.35;9.50;;;;;;;8.44;66.09;98521.66;4917578;29;20028;-85
2021/03/27 06:38:34;;;;;;;14.95;8.93;;;;;;;8.66;65.60;98520.63;4917195;29;20126;-86
2021/03/27 06:41:30;;;;;;;14.93;8.40;;;;;;;8.99;64.78;98517.41;4916886;29;20028;-87
2021/03/27 06:44:22;;;;;;;11.98;8.13;;;;;;;9.56;63.02;98520.69;4919016;29;20040;-85
2021/03/27 06:46:50;;;;;;;20.80;9.98;;;;;;;9.89;61.67;98523.91;4915065;29;20548;-84
2021/03/27 06:49:24;;;;;;;14.00;9.43;;;;;;;10.11;60.96;98524.41;4914242;29;20370;-84
2021/03/27 06:52:28;;;;;;;20.48;9.32;;;;;;;10.24;60.26;98501.97;4914831;29;20024;-86
2021/03/27 06:55:12;;;;;;;12.55;9.10;;;;;;;10.15;60.64;98515.38;4901945;29;20043;-89
2021/03/27 06:58:08;;;;;;;15.48;11.20;;;;;;;10.57;59.76;98523.16;4917385;29;20036;-84
2021/03/27 07:00:38;;;;;;;25.08;16.85;;;;;;;10.95;58.27;98523.47;4919253;29;20417;-82
2021/03/27 07:03:07;;;;;;;53.75;30.02;;;;;;;11.22;57.90;98529.31;4920773;29;20024;-83
2021/03/27 07:06:11;;;;;;;23.77;13.65;;;;;;;11.15;57.24;98517.88;4922915;29;20024;-80
2021/03/27 07:09:08;;;;;;;17.23;9.48;;;;;;;11.41;56.29;98530.25;4867138;29;20068;-84
2021/03/27 07:12:03;;;;;;;13.80;8.48;;;;;;;11.47;56.57;98520.88;4933007;29;20035;-84
2021/03/27 07:14:53;;;;;;;17.83;11.20;;;;;;;11.90;55.10;98516.41;4936313;29;20071;-80
2021/03/27 07:17:46;;;;;;;14.30;10.10;;;;;;;11.74;56.17;98520.41;4933826;29;20144;-79
2021/03/27 07:20:32;;;;;;;13.98;9.63;;;;;;;11.67;55.81;98520.72;4940774;29;20088;-81
2021/03/27 07:23:15;;;;;;;13.70;8.70;;;;;;;11.81;55.39;98526.34;4937130;29;20500;-80
2021/03/27 07:26:02;;;;;;;9.15;6.82;;;;;;;12.11;54.01;98517.00;4936655;29;20090;-82
2021/03/27 07:28:39;;;;;;;8.02;6.13;;;;;;;12.32;53.14;98516.47;4936121;29;20123;-81
2021/03/27 07:31:20;;;;;;;8.60;5.85;;;;;;;12.49;53.24;98516.00;4937139;29;20027;-81
2021/03/27 07:34:04;;;;;;;9.77;6.25;;;;;;;12.54;53.34;98513.19;4938131;29;20028;-85
2021/03/27 07:37:07;;;;;;;9.55;6.25;;;;;;;12.61;53.68;98515.56;4939351;29;20469;-81
2021/03/27 07:39:40;;;;;;;6.35;4.07;;;;;;;12.67;54.41;98526.19;4938027;29;20032;-80
2021/03/27 07:42:33;;;;;;;6.97;4.35;;;;;;;12.86;54.62;98521.53;4932062;29;20151;-80
2021/03/27 07:45:28;;;;;;;6.97;3.80;;;;;;;13.01;55.91;98525.16;4923736;29;20562;-80
2021/03/27 07:48:28;;;;;;;5.82;3.67;;;;;;;13.14;54.92;98521.72;4912212;29;20115;-80
2021/03/27 07:50:56;;;;;;;8.13;4.90;;;;;;;12.88;56.45;98534.97;4923783;29;20024;-79
2021/03/27 07:53:40;;;;;;;8.48;5.72;;;;;;;12.94;56.89;98538.47;4926464;29;20136;-82
2021/03/27 07:56:21;;;;;;;7.90;5.35;;;;;;;12.82;58.07;98555.34;4926508;29;20043;-80
2021/03/27 07:59:04;;;;;;;6.25;4.30;;;;;;;12.61;60.83;98552.06;4923399;29;20047;-76
2021/03/27 08:01:57;;;;;;;10.18;5.25;;;;;;;12.44;62.84;98548.16;4924917;29;20122;-75
2021/03/27 08:04:41;;;;;;;8.35;3.85;;;;;;;12.89;63.36;98555.81;4924173;29;20028;-76
2021/03/27 08:07:19;;;;;;;9.00;4.68;;;;;;;12.99;62.89;98552.13;4923344;29;20066;-75
2021/03/27 08:10:21;;;;;;;5.35;4.18;;;;;;;13.10;63.90;98561.88;4926790;29;20064;-76
2021/03/27 08:13:05;;;;;;;5.18;3.90;;;;;;;12.73;64.24;98552.47;4921991;29;20541;-77
2021/03/27 08:15:58;;;;;;;5.45;3.90;;;;;;;12.64;66.67;98556.97;4926908;29;20055;-79
2021/03/27 08:18:46;;;;;;;6.93;4.47;;;;;;;12.67;66.48;98559.13;4932733;29;20062;-85
2021/03/27 08:21:48;;;;;;;7.72;4.28;;;;;;;12.62;66.53;98553.72;4927040;29;20032;-82
2021/03/27 08:24:17;;;;;;;9.43;5.13;;;;;;;13.11;67.24;98555.28;4928169;29;20127;-82
2021/03/27 08:27:00;;;;;;;7.20;3.97;;;;;;;15.12;59.63;98555.41;4937912;29;20044;-88
2021/03/27 08:29:46;;;;;;;8.40;4.65;;;;;;;15.43;58.16;98561.84;4928333;29;20092;-79
2021/03/27 08:33:06;;;;;;;9.45;4.60;;;;;;;14.84;58.77;98566.50;4928397;29;20075;-81
2021/03/27 08:35:53;;;;;;;8.48;4.65;;;;;;;14.14;60.59;98563.19;4875450;29;20030;-85
2021/03/27 08:38:34;;;;;;;14.52;4.72;;;;;;;13.36;63.96;98563.13;4859118;29;20036;-86
2021/03/27 08:41:20;;;;;;;8.35;5.20;;;;;;;12.97;67.01;98565.34;4921818;29;20036;-86
2021/03/27 08:44:08;;;;;;;9.30;4.80;;;;;;;13.11;66.80;98566.25;4925018;29;20020;-86
2021/03/27 08:46:44;;;;;;;7.40;4.60;;;;;;;13.24;65.59;98563.59;4929433;29;20522;-82
2021/03/27 08:49:31;;;;;;;6.93;5.15;;;;;;;14.27;62.25;98575.31;4933772;29;20110;-85
2021/03/27 08:52:04;;;;;;;6.15;4.30;;;;;;;15.65;58.05;98570.16;4934102;29;20123;-87
2021/03/27 08:54:33;;;;;;;8.82;4.90;;;;;;;16.42;57.80;98573.38;4941370;29;20040;-88
2021/03/27 08:57:07;;;;;;;7.45;4.95;;;;;;;17.62;52.36;98564.59;4936709;29;20019;-84
2021/03/27 09:00:05;;;;;;;5.32;3.50;;;;;;;17.10;53.33;98583.09;4923870;29;20036;-78
2021/03/27 09:02:42;;;;;;;9.30;4.53;;;;;;;16.33;55.97;98574.47;4917047;29;20066;-76
2021/03/27 09:05:28;;;;;;;5.15;4.18;;;;;;;14.98;60.40;98572.78;4925513;29;20026;-78
2021/03/27 09:07:54;;;;;;;;;;;;;;;14.49;62.79;98569.97;4912721;29;21007;-75
2021/03/27 09:10:32;;;;;;;7.20;4.53;;;;;;;13.95;63.96;98587.19;4911997;29;20010;-76
2021/03/27 09:13:23;;;;;;;10.73;4.53;;;;;;;13.64;63.83;98575.06;4919547;29;20119;-75
2021/03/27 09:16:26;;;;;;;15.15;5.95;;;;;;;13.69;64.63;98578.53;4924008;29;20034;-76
2021/03/27 09:19:17;;;;;;;8.43;4.95;;;;;;;13.38;64.58;98582.88;4920436;29;20032;-75
2021/03/27 09:21:55;;;;;;;5.38;4.78;;;;;;;13.14;65.45;98582.16;4914879;29;20044;-74
2021/03/27 09:24:29;;;;;;;7.90;3.85;;;;;;;13.02;66.33;98570.75;4924860;29;20020;-77
2021/03/27 09:27:19;;;;;;;5.20;4.22;;;;;;;13.32;66.49;98584.06;4920545;29;20438;-74
2021/03/27 09:29:47;;;;;;;9.38;6.20;;;;;;;13.64;67.03;98597.88;4912390;29;20040;-77
2021/03/27 09:32:31;;;;;;;5.75;4.20;;;;;;;13.59;65.51;98595.22;4918285;29;20088;-77
2021/03/27 09:35:06;;;;;;;6.40;4.20;;;;;;;13.47;65.71;98585.78;4923152;29;20019;-75
2021/03/27 09:37:47;;;;;;;6.40;4.90;;;;;;;13.10;67.96;98589.34;4921243;29;20024;-76
2021/03/27 09:40:21;;;;;;;7.30;4.80;;;;;;;12.95;68.74;98595.81;4923541;29;20109;-81
2021/03/27 09:42:49;;;;;;;7.50;4.65;;;;;;;12.78;69.96;98596.31;4929986;29;20034;-76
2021/03/27 09:45:25;;;;;;;9.38;5.20;;;;;;;12.61;70.63;98596.00;4926114;29;20606;-76
2021/03/27 09:48:09;;;;;;;7.70;5.30;;;;;;;12.46;71.57;98592.59;4923519;29;20016;-76
2021/03/27 09:50:37;;;;;;;6.53;4.82;;;;;;;12.45;71.45;98600.00;4922511;29;20575;-75
2021/03/27 09:53:23;;;;;;;10.38;6.05;;;;;;;12.45;70.71;98591.78;4925532;29;20020;-75
2021/03/27 09:55:49;;;;;;;;;;;;;;;12.44;71.41;98586.56;4933069;29;20369;-75
2021/03/27 09:58:17;;;;;;;7.50;4.80;;;;;;;12.28;71.92;98588.66;4933150;29;19929;-80
2021/03/27 10:00:50;;;;;;;6.95;5.10;;;;;;;12.25;72.61;98594.72;4930115;29;20047;-79
2021/03/27 10:03:15;;;;;;;9.70;5.93;;;;;;;12.35;71.89;98602.84;4925077;29;20184;-82
2021/03/27 10:05:50;;;;;;;10.27;5.30;;;;;;;12.36;72.67;98596.28;4923867;29;20114;-75
2021/03/27 10:08:31;;;;;;;5.80;5.00;;;;;;;12.34;72.12;98598.50;4921980;29;20036;-78
2021/03/27 10:11:01;;;;;;;8.90;5.57;;;;;;;12.24;73.07;98601.34;4922578;29;20107;-78
2021/03/27 10:13:35;;;;;;;6.13;5.25;;;;;;;12.32;73.95;98603.44;4922160;29;20435;-77
2021/03/27 10:16:03;;;;;;;8.50;5.15;;;;;;;12.03;74.75;98606.19;4913928;29;20525;-78
2021/03/27 10:18:51;;;;;;;8.73;5.20;;;;;;;11.79;76.28;98600.66;4912082;29;20024;-80
2021/03/27 10:21:35;;;;;;;7.57;5.25;;;;;;;11.72;75.78;98602.91;4913363;29;20032;-78
2021/03/27 10:24:38;;;;;;;7.22;5.32;;;;;;;11.86;76.23;98602.25;4916959;29;20036;-87
2021/03/27 10:27:24;;;;;;;10.52;6.40;;;;;;;11.95;76.20;98601.34;4924273;29;20092;-86
2021/03/27 10:30:03;;;;;;;7.68;5.63;;;;;;;12.14;75.66;98599.53;4916501;29;20055;-79
2021/03/27 10:32:31;;;;;;;6.63;5.55;;;;;;;12.30;74.32;98600.19;4931735;29;20031;-78
2021/03/27 10:35:08;;;;;;;6.50;4.93;;;;;;;12.39;74.27;98598.44;4925850;29;20097;-79
2021/03/27 10:37:43;;;;;;;11.20;6.07;;;;;;;12.67;73.18;98594.00;4914347;29;20088;-79
2021/03/27 10:40:30;;;;;;;7.88;5.80;;;;;;;12.94;73.19;98596.13;4916153;29;20047;-79
2021/03/27 10:43:05;;;;;;;11.65;5.60;;;;;;;13.15;71.46;98587.34;4919388;29;20034;-82
2021/03/27 10:45:34;;;;;;;9.30;5.57;;;;;;;13.18;69.58;98577.69;4931953;29;20089;-79
2021/03/27 10:48:09;;;;;;;7.82;5.40;;;;;;;13.41;69.43;98590.53;4935336;29;20111;-79
2021/03/27 10:50:41;;;;;;;6.40;5.38;;;;;;;13.43;68.41;98588.31;4935556;29;20385;-78
2021/03/27 10:53:26;;;;;;;9.38;5.15;;;;;;;13.61;67.77;98592.97;4930973;29;20043;-78
2021/03/27 10:56:01;;;;;;;8.70;5.68;;;;;;;13.43;67.46;98582.00;4924785;29;20127;-80
2021/03/27 10:58:42;;;;;;;9.77;5.72;;;;;;;13.81;66.93;98578.09;4926369;29;20034;-76
2021/03/27 11:01:45;;;;;;;10.45;5.50;;;;;;;14.41;63.08;98584.41;4925764;29;20068;-76
2021/03/27 11:04:25;;;;;;;8.15;5.47;;;;;;;14.53;63.12;98578.44;4928284;29;20019;-80
2021/03/27 11:07:09;;;;;;;21.42;13.27;;;;;;;14.86;62.31;98578.00;4926164;29;20028;-78
2021/03/27 11:09:59;;;;;;;7.07;5.53;;;;;;;14.80;61.20;98582.00;4923941;29;20067;-79
2021/03/27 11:13:02;;;;;;;8.05;5.45;;;;;;;15.06;61.84;98574.00;4922978;29;20446;-81
2021/03/27 11:16:08;;;;;;;10.85;5.53;;;;;;;14.74;61.99;98574.13;4925741;29;20092;-80
2021/03/27 11:18:42;;;;;;;9.23;5.20;;;;;;;14.71;61.09;98574.75;4924897;29;20058;-80
2021/03/27 11:21:10;;;;;;;12.15;5.57;;;;;;;14.23;62.88;98575.09;4926035;29;20036;-81
2021/03/27 11:24:10;;;;;;;7.78;5.15;;;;;;;14.28;62.63;98580.50;4925724;29;20039;-78
2021/03/27 11:26:54;;;;;;;7.25;4.35;;;;;;;14.28;62.69;98571.47;4916504;29;20087;-83
2021/03/27 11:29:55;;;;;;;11.32;6.72;;;;;;;14.00;64.00;98567.84;4923943;29;20024;-79
2021/03/27 11:32:32;;;;;;;14.25;5.78;;;;;;;14.09;64.14;98565.22;4923334;29;20043;-82
2021/03/27 11:35:06;;;;;;;11.95;5.68;;;;;;;14.10;64.02;98575.91;4923151;29;20032;-82
2021/03/27 11:37:38;;;;;;;11.43;5.45;;;;;;;13.90;63.78;98565.28;4925440;29;20027;-82
2021/03/27 11:40:22;;;;;;;8.40;5.60;;;;;;;13.93;63.70;98561.91;4925736;29;20063;-83
2021/03/27 11:43:01;;;;;;;10.68;5.75;;;;;;;13.86;64.83;98567.81;4927023;29;20012;-80
2021/03/27 11:45:39;;;;;;;7.40;6.03;;;;;;;13.65;65.09;98565.69;4930001;29;20028;-80
2021/03/27 11:48:29;;;;;;;15.30;5.85;;;;;;;13.52;65.83;98563.72;4931405;29;20050;-79
2021/03/27 11:51:24;;;;;;;12.85;6.85;;;;;;;13.33;67.50;98569.22;4921016;29;20066;-82
2021/03/27 11:54:26;;;;;;;8.50;5.90;;;;;;;13.26;67.72;98564.09;4922499;29;20032;-80
2021/03/27 11:57:17;;;;;;;9.75;5.75;;;;;;;13.07;69.08;98567.91;4919687;29;20028;-79
2021/03/27 12:03:11;;;;;;;7.43;6.05;;;;;;;12.81;70.87;98562.78;4931260;29;20068;-81
2021/03/27 12:05:51;;;;;;;10.10;5.82;;;;;;;12.74;72.57;98572.50;4927191;29;20032;-80
2021/03/27 12:08:47;;;;;;;11.38;6.18;;;;;;;12.69;72.20;98556.91;4923105;29;20030;-81
2021/03/27 12:11:37;;;;;;;9.73;7.03;;;;;;;12.90;71.85;98563.75;4926483;29;20469;-78
2021/03/27 12:14:31;;;;;;;9.43;6.88;;;;;;;13.09;70.41;98571.25;4925842;29;20047;-81
2021/03/27 12:17:12;;;;;;;16.38;7.13;;;;;;;13.14;70.60;98565.66;4928189;29;20140;-79
2021/03/27 12:20:11;;;;;;;11.93;7.43;;;;;;;13.07;70.63;98563.25;4914530;29;20069;-81
2021/03/27 12:22:44;;;;;;;9.75;6.40;;;;;;;13.15;70.75;98556.31;4915237;29;20529;-80
2021/03/27 12:25:38;;;;;;;9.85;6.65;;;;;;;13.16;71.04;98558.75;4915431;29;20063;-74
2021/03/27 12:28:15;;;;;;;9.13;6.28;;;;;;;13.35;70.20;98561.50;4925188;29;20040;-77
2021/03/27 12:31:06;;;;;;;11.20;7.60;;;;;;;13.13;70.50;98548.34;4924884;29;20473;-83
2021/03/27 12:33:39;;;;;;;9.18;6.10;;;;;;;13.10;71.49;98546.19;4923918;29;20052;-81
2021/03/27 12:36:31;;;;;;;10.80;7.85;;;;;;;12.94;70.79;98553.00;4922154;29;20386;-78
2021/03/27 12:39:13;;;;;;;9.52;7.03;;;;;;;12.83;71.07;98555.06;4908591;29;20059;-76
2021/03/27 12:41:51;;;;;;;10.90;7.30;;;;;;;12.72;71.78;98560.97;4928915;29;20076;-78
2021/03/27 12:44:29;;;;;;;20.23;8.02;;;;;;;12.70;72.56;98549.47;4929269;29;20507;-79
2021/03/27 12:47:04;;;;;;;10.88;7.38;;;;;;;12.68;72.30;98563.53;4932604;29;20035;-80
2021/03/27 12:49:38;;;;;;;12.63;8.38;;;;;;;12.63;72.92;98566.31;4934223;29;20028;-82
2021/03/27 12:52:38;;;;;;;10.18;7.82;;;;;;;12.58;74.36;98558.16;4933391;29;20074;-81